Time;durP1;ratioP1;P1;durP2;ratioP2;P2;SDS_P1;SDS_P2;PMS_P1;PMS_P2;Temp;Humidity;BMP_temperature;BMP_pressure;BME280_temperature;BME280_humidity;BME280_pressure;Samples;Min_cycle;Max_cycle;Signal;HPM_P1;HPM_P2
2021/01/23 00:00:26;;;;;;;26.80;18.43;;;;;;;1.59;75.43;99708.22;1775424;80;21124;-88
2021/01/23 00:02:54;;;;;;;25.93;20.40;;;;;;;1.68;75.20;99702.09;1745112;81;21165;-87
2021/01/23 00:05:23;;;;;;;27.63;21.87;;;;;;;1.68;75.11;99704.72;1746752;82;21151;-88
2021/01/23 00:07:51;;;;;;;28.97;22.73;;;;;;;1.62;75.27;99705.28;1696270;84;21761;-88
2021/01/23 00:10:20;;;;;;;25.10;19.70;;;;;;;1.52;75.55;99714.52;1745872;82;21285;-86
2021/01/23 00:12:47;;;;;;;21.77;18.40;;;;;;;1.57;75.47;99704.41;1696497;82;21116;-86
2021/01/23 00:15:14;;;;;;;24.93;18.17;;;;;;;1.66;75.13;99702.72;1672009;84;21221;-87
2021/01/23 00:17:41;;;;;;;21.27;18.53;;;;;;;1.61;75.21;99700.52;1633480;86;21230;-86
2021/01/23 00:20:12;;;;;;;23.57;19.27;;;;;;;1.54;75.43;99709.95;1681511;84;21752;-89
2021/01/23 00:22:41;;;;;;;24.07;19.20;;;;;;;1.52;75.54;99712.72;1681859;84;21112;-88
2021/01/23 00:25:10;;;;;;;26.20;19.40;;;;;;;1.66;75.21;99716.67;1707587;82;21249;-88
2021/01/23 00:27:40;;;;;;;23.33;18.60;;;;;;;1.68;75.04;99711.28;1698338;82;21208;-84
2021/01/23 00:30:08;;;;;;;25.87;19.57;;;;;;;1.60;75.17;99710.70;1701094;83;21773;-89
2021/01/23 00:32:37;;;;;;;34.33;20.07;;;;;;;1.54;75.31;99717.83;1690881;82;21247;-87
2021/01/23 00:35:07;;;;;;;30.03;20.43;;;;;;;1.55;75.33;99719.00;1679089;82;21103;-86
2021/01/23 00:37:34;;;;;;;22.77;18.93;;;;;;;1.64;75.02;99719.94;1696946;84;21214;-88
2021/01/23 00:40:04;;;;;;;23.83;19.57;;;;;;;1.54;75.18;99726.56;1691925;85;21719;-88
2021/01/23 00:42:44;;;;;;;22.77;17.43;;;;;;;1.50;75.36;99705.96;1846079;76;23686;-87
2021/01/23 00:45:13;;;;;;;26.87;18.87;;;;;;;1.46;75.43;99717.73;1772832;78;21245;-87
2021/01/23 00:47:40;;;;;;;23.37;19.43;;;;;;;1.58;75.09;99708.68;1726643;82;21120;-87
2021/01/23 00:50:10;;;;;;;23.20;19.10;;;;;;;1.59;75.03;99699.02;1711308;82;21359;-87
2021/01/23 00:52:37;;;;;;;22.97;18.30;;;;;;;1.53;75.14;99710.94;1715513;83;21206;-88
2021/01/23 00:55:22;;;;;;;;;;;;;;;;;;;;;
2021/01/23 00:57:52;;;;;;;23.37;18.77;;;;;;;1.41;75.41;99708.14;1743020;79;21115;-88
2021/01/23 01:00:20;;;;;;;25.10;19.40;;;;;;;1.50;75.14;99700.22;1701964;82;21359;-88
2021/01/23 01:02:49;;;;;;;25.70;18.77;;;;;;;1.49;75.15;99688.56;1675283;83;21117;-87
2021/01/23 01:05:34;;;;;;;25.47;20.13;;;;;;;1.43;75.43;99691.28;1791146;78;23116;-86
2021/01/23 01:08:02;;;;;;;23.27;18.60;;;;;;;1.30;75.78;99698.17;1773530;80;21167;-87
2021/01/23 01:10:30;;;;;;;21.77;18.10;;;;;;;1.40;75.52;99691.56;1751208;80;21210;-86
2021/01/23 01:13:07;;;;;;;27.33;20.40;;;;;;;1.44;75.29;99688.17;1737849;78;21105;-85
2021/01/23 01:15:32;;;;;;;21.47;17.43;;;;;;;1.38;75.47;99691.38;1721051;81;21324;-84
2021/01/23 01:17:59;;;;;;;24.73;17.33;;;;;;;1.30;75.50;99686.36;1733394;81;21177;-88
2021/01/23 01:20:27;;;;;;;25.10;19.33;;;;;;;1.30;75.50;99690.77;1730309;81;21401;-87
2021/01/23 01:22:54;;;;;;;25.00;18.27;;;;;;;1.41;75.20;99687.13;1704615;79;21133;-86
2021/01/23 01:25:21;;;;;;;21.77;16.83;;;;;;;0.37;74.95;99526.20;1672095;84;21262;-86
2021/01/23 01:27:53;;;;;;;25.30;19.67;;;;;;;1.36;75.18;99704.16;1616830;87;21850;-87
2021/01/23 01:30:22;;;;;;;25.17;18.93;;;;;;;1.11;75.36;99691.66;1637631;86;21227;-87
2021/01/23 01:32:51;;;;;;;27.50;18.97;;;;;;;1.24;75.55;99713.17;1628700;87;22422;-86
2021/01/23 01:35:19;;;;;;;22.27;17.23;;;;;;;1.36;75.28;99712.03;1655968;82;21095;-87
2021/01/23 01:37:50;;;;;;;26.20;21.30;;;;;;;1.41;75.14;99723.90;1673402;84;21452;-87
2021/01/23 01:40:21;;;;;;;26.13;20.40;;;;;;;1.27;75.49;99722.58;1668128;83;21288;-86
2021/01/23 01:42:48;;;;;;;20.87;16.53;;;;;;;1.17;75.78;99714.73;1683978;82;21146;-86
2021/01/23 01:45:23;;;;;;;25.43;18.90;;;;;;;1.20;75.74;99714.92;1679566;81;21164;-88
2021/01/23 01:47:50;;;;;;;21.77;17.83;;;;;;;1.27;75.55;99711.58;1694550;84;21198;-87
2021/01/23 01:50:17;;;;;;;20.27;15.80;;;;;;;1.28;75.47;99707.15;1686166;83;21507;-84
2021/01/23 01:52:46;;;;;;;26.03;20.47;;;;;;;1.18;75.70;99703.25;1690444;83;21430;-86
2021/01/23 01:55:13;;;;;;;25.37;18.00;;;;;;;1.13;75.77;99701.06;1683745;82;21223;-84
2021/01/23 01:57:44;;;;;;;27.67;18.90;;;;;;;1.05;76.11;99699.62;1677575;83;21776;-87
2021/01/23 02:00:13;;;;;;;23.90;19.10;;;;;;;1.16;75.69;99698.14;1679808;83;21203;-88
2021/01/23 02:03:01;;;;;;;23.00;17.20;;;;;;;1.14;75.69;99685.64;1691396;84;21159;-87
2021/01/23 02:05:52;;;;;;;22.33;17.07;;;;;;;1.04;76.07;99689.29;1679528;84;21737;-87
2021/01/23 02:08:57;;;;;;;21.87;18.03;;;;;;;0.95;76.42;99689.16;1678452;84;21294;-87
2021/01/23 02:11:32;;;;;;;20.53;16.57;;;;;;;1.11;76.01;99696.45;1678493;81;21357;-88
2021/01/23 02:14:31;;;;;;;25.57;19.37;;;;;;;1.11;75.95;99703.02;1680648;84;21199;-87
2021/01/23 02:17:04;;;;;;;;;;;;;;;1.07;76.10;99695.55;1673500;84;21203;-85
2021/01/23 02:20:10;;;;;;;24.83;18.67;;;;;;;0.99;76.28;99690.20;1678535;83;20184;-89
2021/01/23 02:23:11;;;;;;;24.27;18.57;;;;;;;1.04;76.20;99694.54;1689409;81;21123;-89
2021/01/23 02:26:06;;;;;;;25.90;18.73;;;;;;;1.08;75.97;99699.84;1675547;84;21204;-89
2021/01/23 02:29:12;;;;;;;24.30;17.73;;;;;;;1.00;76.25;99702.33;1676782;83;21432;-88
2021/01/23 02:31:54;;;;;;;23.83;18.10;;;;;;;0.94;76.54;99699.79;1672057;83;21316;-86
2021/01/23 02:34:23;;;;;;;21.03;17.23;;;;;;;1.03;76.20;99690.25;1685394;81;21214;-86
2021/01/23 02:36:56;;;;;;;22.30;17.90;;;;;;;1.14;76.00;99694.02;1671772;83;21349;-88
2021/01/23 02:39:23;;;;;;;22.60;17.53;;;;;;;1.08;76.02;99691.47;1685029;84;21321;-89
2021/01/23 02:41:52;;;;;;;27.23;18.20;;;;;;;1.04;76.09;99696.67;1685173;83;21209;-90
2021/01/23 02:44:21;;;;;;;21.50;16.40;;;;;;;1.07;76.03;99696.86;1657662;83;21207;-89
2021/01/23 02:46:51;;;;;;;22.27;18.10;;;;;;;1.02;75.81;99676.77;1668724;83;21198;-89
2021/01/23 02:49:19;;;;;;;24.50;18.77;;;;;;;1.08;75.92;99697.22;1684212;84;21353;-89
2021/01/23 02:51:55;;;;;;;21.53;16.60;;;;;;;1.03;76.02;99700.25;1695214;82;21186;-88
2021/01/23 02:54:39;;;;;;;23.50;17.10;;;;;;;1.13;75.84;99701.53;1675195;84;21348;-86
2021/01/23 02:57:09;;;;;;;24.43;16.80;;;;;;;1.19;75.57;99711.95;1616548;82;21440;-86
2021/01/23 02:59:39;;;;;;;22.93;16.97;;;;;;;1.14;75.70;99710.58;1608173;88;22286;-88
2021/01/23 03:02:15;;;;;;;22.20;17.30;;;;;;;1.11;75.75;99716.14;1657710;85;21100;-87
2021/01/23 03:04:43;;;;;;;21.83;16.40;;;;;;;1.15;75.62;99722.75;1674879;85;21213;-87
2021/01/23 03:07:15;;;;;;;24.43;18.10;;;;;;;1.22;75.29;99719.05;1679514;84;21343;-87
2021/01/23 03:09:43;;;;;;;18.60;16.53;;;;;;;1.16;75.38;99722.26;1668208;85;21173;-89
2021/01/23 03:12:11;;;;;;;21.80;16.83;;;;;;;1.05;75.69;99710.13;1685990;79;21051;-87
2021/01/23 03:14:38;;;;;;;22.97;17.23;;;;;;;1.09;75.67;99708.89;1670187;79;21126;-85
2021/01/23 03:17:05;;;;;;;21.00;16.43;;;;;;;1.14;75.49;99720.27;1673264;80;21126;-87
2021/01/23 03:19:32;;;;;;;22.37;17.33;;;;;;;1.12;75.47;99710.39;1675286;79;21453;-85
2021/01/23 03:21:59;;;;;;;19.00;14.60;;;;;;;1.03;75.70;99718.63;1678273;83;21338;-85
2021/01/23 03:24:26;;;;;;;;;;;;;;;1.05;75.64;99724.55;1684542;84;21122;-87
2021/01/23 03:26:55;;;;;;;20.90;16.07;;;;;;;1.15;75.41;99725.88;1670496;85;20295;-87
2021/01/23 03:29:22;;;;;;;19.70;15.87;;;;;;;1.04;75.57;99718.16;1676354;85;21288;-87
2021/01/23 03:31:52;;;;;;;19.73;16.50;;;;;;;0.96;75.72;99707.03;1680487;84;21162;-85
2021/01/23 03:34:19;;;;;;;16.40;13.20;;;;;;;0.93;75.82;99709.47;1685713;82;21051;-87
2021/01/23 03:36:50;;;;;;;20.63;15.80;;;;;;;1.00;75.75;99711.52;1668320;85;21196;-87
2021/01/23 03:39:18;;;;;;;23.23;15.77;;;;;;;1.08;75.40;99711.16;1672597;84;21715;-89
2021/01/23 03:41:45;;;;;;;22.83;16.33;;;;;;;0.82;75.51;99677.33;1662204;85;21197;-87
2021/01/23 03:44:13;;;;;;;19.17;15.07;;;;;;;0.94;75.72;99714.22;1660069;84;21287;-88
2021/01/23 03:46:40;;;;;;;22.53;18.10;;;;;;;0.90;75.91;99721.55;1683692;84;21315;-86
2021/01/23 03:49:10;;;;;;;19.77;16.50;;;;;;;0.97;75.67;99710.83;1687003;84;21410;-86
2021/01/23 03:51:37;;;;;;;21.77;18.23;;;;;;;1.01;75.54;99711.87;1688077;84;21231;-88
2021/01/23 03:54:05;;;;;;;25.33;18.40;;;;;;;0.92;75.76;99714.85;1690402;84;21196;-87
2021/01/23 03:56:32;;;;;;;22.50;15.77;;;;;;;-0.53;75.84;99504.34;1660091;84;21754;-88
2021/01/23 03:59:03;;;;;;;19.13;17.03;;;;;;;0.83;75.96;99714.38;1652244;84;21192;-87
2021/01/23 04:01:30;;;;;;;20.00;17.57;;;;;;;0.88;75.79;99709.05;1692492;83;21050;-87
2021/01/23 04:03:58;;;;;;;22.00;17.07;;;;;;;0.83;75.90;99715.23;1689096;82;21193;-87
2021/01/23 04:06:26;;;;;;;21.10;16.83;;;;;;;0.75;76.17;99712.47;1691887;84;22247;-87
2021/01/23 04:08:55;;;;;;;23.00;18.00;;;;;;;0.70;76.38;99719.95;1645888;86;21336;-86
2021/01/23 04:11:22;;;;;;;28.10;16.27;;;;;;;0.79;76.11;99712.52;1637050;85;21216;-86
2021/01/23 04:13:50;;;;;;;21.83;17.27;;;;;;;0.79;76.11;99715.14;1687955;84;21194;-86
2021/01/23 04:16:18;;;;;;;23.20;17.67;;;;;;;0.73;76.24;99713.09;1725716;82;21197;-86
2021/01/23 04:18:45;;;;;;;20.17;16.57;;;;;;;0.66;76.45;99711.98;1719078;82;21352;-88
2021/01/23 04:21:13;;;;;;;22.83;16.40;;;;;;;0.75;76.25;99707.22;1732542;82;21216;-86
2021/01/23 04:23:41;;;;;;;22.73;17.13;;;;;;;0.82;76.00;99712.25;1727392;80;21121;-88
2021/01/23 04:26:11;;;;;;;19.77;16.83;;;;;;;0.74;76.09;99708.20;1693766;83;21193;-85
2021/01/23 04:28:38;;;;;;;17.83;15.63;;;;;;;0.71;76.29;99709.78;1723536;82;21408;-87
2021/01/23 04:31:05;;;;;;;18.23;15.57;;;;;;;0.75;76.18;99716.40;1717984;82;21194;-86
2021/01/23 04:33:34;;;;;;;20.15;16.57;;;;;;;0.85;75.86;99713.29;1716027;82;21098;-86
2021/01/23 04:36:18;;;;;;;23.83;17.40;;;;;;;0.86;75.67;99713.62;1713961;82;21201;-85
2021/01/23 04:38:45;;;;;;;24.57;19.00;;;;;;;0.50;75.92;99674.05;1730781;82;21335;-86
2021/01/23 04:41:12;;;;;;;23.20;17.97;;;;;;;0.72;76.10;99716.20;1722185;82;21142;-84
2021/01/23 04:43:45;;;;;;;26.40;20.70;;;;;;;0.74;76.05;99718.20;1730896;82;21193;-87
2021/01/23 04:46:12;;;;;;;25.17;19.13;;;;;;;0.86;75.82;99712.80;1716656;82;21240;-86
2021/01/23 04:48:41;;;;;;;26.57;19.97;;;;;;;0.85;75.72;99706.73;1719016;82;21181;-88
2021/01/23 04:51:09;;;;;;;30.20;20.87;;;;;;;0.76;75.93;99705.77;1728710;82;21403;-85
2021/01/23 04:53:39;;;;;;;24.30;18.83;;;;;;;0.70;76.13;99706.83;1714647;82;21300;-85
2021/01/23 04:56:09;;;;;;;26.00;18.90;;;;;;;0.71;76.21;99719.78;1719691;82;21103;-84
2021/01/23 04:58:37;;;;;;;21.27;16.53;;;;;;;0.79;75.98;99717.77;1713319;82;21189;-84
2021/01/23 05:01:04;;;;;;;22.77;18.13;;;;;;;0.76;75.90;99711.02;1696432;83;21100;-83
2021/01/23 05:03:58;;;;;;;25.43;18.67;;;;;;;0.67;76.13;99716.28;1698000;83;21613;-84
2021/01/23 05:06:26;;;;;;;21.20;16.77;;;;;;;0.56;76.62;99715.94;1725076;82;21572;-84
2021/01/23 05:08:53;;;;;;;22.43;17.63;;;;;;;0.66;76.19;99714.15;1744919;82;21178;-82
2021/01/23 05:11:22;;;;;;;23.47;17.47;;;;;;;0.69;76.07;99716.97;1723590;81;21627;-84
2021/01/23 05:14:09;;;;;;;23.03;18.13;;;;;;;0.63;76.28;99721.47;1729556;82;21307;-83
2021/01/23 05:16:36;;;;;;;22.58;16.50;;;;;;;0.57;76.36;99724.98;1728254;82;21198;-84
2021/01/23 05:19:05;;;;;;;22.00;16.80;;;;;;;0.57;76.44;99727.60;1743186;82;21134;-86
2021/01/23 05:21:34;;;;;;;21.40;15.87;;;;;;;0.65;76.23;99725.59;1726760;81;21399;-87
2021/01/23 05:24:09;;;;;;;24.37;18.80;;;;;;;0.55;76.41;99722.98;1739997;79;21254;-86
2021/01/23 05:26:37;;;;;;;22.30;15.70;;;;;;;0.48;76.66;99732.36;1734919;81;21428;-86
2021/01/23 05:29:12;;;;;;;22.40;18.00;;;;;;;0.46;76.75;99734.80;1730944;82;21125;-86
2021/01/23 05:31:42;;;;;;;20.53;17.43;;;;;;;0.55;76.42;99736.59;1737603;81;21304;-84
2021/01/23 05:34:31;;;;;;;24.07;17.37;;;;;;;0.51;76.57;99743.05;1742653;79;21067;-84
2021/01/23 05:36:59;;;;;;;22.97;18.37;;;;;;;0.45;76.73;99736.56;1744399;82;21134;-86
2021/01/23 05:39:48;;;;;;;22.33;17.50;;;;;;;0.35;77.12;99737.88;1744743;81;21129;-82
2021/01/23 05:42:15;;;;;;;23.87;19.33;;;;;;;0.46;76.85;99736.10;1723867;82;21161;-85
2021/01/23 05:44:42;;;;;;;21.90;16.67;;;;;;;0.43;76.87;99735.88;1741680;79;21082;-83
2021/01/23 05:47:26;;;;;;;21.90;18.13;;;;;;;0.35;77.10;99731.81;1740554;82;21343;-83
2021/01/23 05:49:54;;;;;;;25.03;18.80;;;;;;;0.31;77.24;99737.81;1724802;82;21174;-81
2021/01/23 05:52:21;;;;;;;27.30;20.80;;;;;;;0.38;77.08;99731.55;1745172;82;21162;-83
2021/01/23 05:54:50;;;;;;;24.93;18.00;;;;;;;0.37;77.08;99729.88;1735568;82;21141;-85
2021/01/23 05:57:21;;;;;;;25.77;18.50;;;;;;;0.32;77.22;99728.14;1726908;82;21015;-88
2021/01/23 05:59:48;;;;;;;27.83;17.77;;;;;;;0.37;77.10;99734.63;1732230;82;21133;-85
2021/01/23 06:02:22;;;;;;;31.73;21.80;;;;;;;0.45;76.86;99735.74;1746871;81;21030;-88
2021/01/23 06:04:52;;;;;;;23.27;17.57;;;;;;;0.37;76.98;99729.39;1720697;82;21758;-85
2021/01/23 06:07:47;;;;;;;22.83;18.27;;;;;;;0.28;77.37;99726.77;1731756;82;21133;-88
2021/01/23 06:10:27;;;;;;;24.57;17.90;;;;;;;0.33;77.21;99732.44;1735241;82;21153;-86
2021/01/23 06:12:54;;;;;;;23.00;18.00;;;;;;;0.43;76.96;99728.02;1743594;82;21102;-86
2021/01/23 06:15:35;;;;;;;26.73;20.57;;;;;;;0.38;77.04;99727.62;1727392;82;21181;-86
2021/01/23 06:20:46;;;;;;;24.10;18.50;;;;;;;0.42;77.13;99738.17;1821399;77;22872;-84
2021/01/23 06:23:16;;;;;;;22.03;17.53;;;;;;;0.48;76.91;99750.72;1785616;78;21152;-87
2021/01/23 06:25:58;;;;;;;24.13;18.57;;;;;;;0.56;76.79;99763.96;1713944;82;21168;-86
2021/01/23 06:28:45;;;;;;;30.97;22.50;;;;;;;0.57;76.84;99766.94;1704181;83;21203;-88
2021/01/23 06:31:31;;;;;;;24.53;19.60;;;;;;;0.60;76.66;99761.08;1834733;76;22877;-87
2021/01/23 06:34:00;;;;;;;26.80;18.17;;;;;;;0.68;76.29;99764.67;1776410;77;21104;-85
2021/01/23 06:36:30;;;;;;;20.87;18.13;;;;;;;0.86;75.81;99767.90;1740021;81;21191;-89
2021/01/23 06:39:13;;;;;;;25.97;18.73;;;;;;;0.84;75.62;99775.91;1739143;81;21207;-88
2021/01/23 06:42:00;;;;;;;27.13;18.60;;;;;;;0.78;75.73;99777.78;1742052;81;21167;-92
2021/01/23 06:44:37;;;;;;;22.67;18.33;;;;;;;0.78;75.80;99772.53;1743214;82;21127;-90
2021/01/23 06:47:11;;;;;;;26.57;18.98;;;;;;;0.67;75.46;99723.66;1713093;78;21528;-86
2021/01/23 06:49:45;;;;;;;26.47;20.27;;;;;;;1.08;75.38;99772.84;1687566;83;21181;-93
2021/01/23 06:52:21;;;;;;;25.70;19.93;;;;;;;1.08;74.95;99780.72;1650936;84;21163;-90
2021/01/23 06:54:48;;;;;;;25.03;17.27;;;;;;;1.05;74.85;99782.30;1693673;82;21322;-91
2021/01/23 06:57:32;;;;;;;27.70;20.03;;;;;;;1.05;74.78;99770.48;1683606;82;21281;-90
2021/01/23 07:00:06;;;;;;;25.67;17.87;;;;;;;1.18;74.26;99768.88;1700383;82;21152;-91
2021/01/23 07:03:26;;;;;;;27.43;20.20;;;;;;;1.24;74.17;99760.43;1807137;77;23005;-89
2021/01/23 07:06:03;;;;;;;26.60;18.63;;;;;;;1.13;74.40;99766.69;1720301;78;21170;-89
2021/01/23 07:08:37;;;;;;;23.43;18.37;;;;;;;1.08;74.54;99768.91;1759928;78;21173;-90
2021/01/23 07:11:17;;;;;;;32.47;21.43;;;;;;;1.14;74.40;99762.27;1720912;82;21221;-92
2021/01/23 07:14:08;;;;;;;28.77;22.20;;;;;;;1.17;74.40;99764.62;1717020;83;21313;-89
2021/01/23 07:16:42;;;;;;;24.63;18.33;;;;;;;1.10;74.57;99764.83;1717065;82;21784;-94
2021/01/23 07:19:10;;;;;;;29.53;21.90;;;;;;;1.13;74.81;99774.56;1692713;83;21185;-90
2021/01/23 07:28:21;;;;;;;32.43;22.43;;;;;;;1.62;73.19;99767.02;1668484;81;21185;-92
2021/01/23 07:31:34;;;;;;;26.10;19.67;;;;;;;1.50;73.15;99771.63;1689885;83;21155;-90
2021/01/23 07:35:00;;;;;;;28.10;20.37;;;;;;;1.43;73.37;99768.77;1638620;84;21160;-92
2021/01/23 07:38:02;;;;;;;29.00;21.27;;;;;;;1.62;72.92;99784.09;1704208;82;21306;-92
2021/01/23 07:41:30;;;;;;;24.73;20.93;;;;;;;1.62;72.89;99774.89;1679558;82;21251;-93
2021/01/23 07:48:07;;;;;;;25.57;18.27;;;;;;;1.50;73.30;99773.76;1684058;82;21185;-90
2021/01/23 07:50:44;;;;;;;29.30;21.10;;;;;;;1.73;72.77;99775.56;1660249;83;21350;-92
2021/01/23 07:53:41;;;;;;;22.60;18.77;;;;;;;1.76;72.19;99765.23;1648553;84;21173;-91
2021/01/23 07:57:09;;;;;;;27.00;20.57;;;;;;;1.68;72.51;99765.96;1588008;87;21186;-92
2021/01/23 07:59:57;;;;;;;31.20;21.47;;;;;;;1.66;72.68;99774.97;1614781;86;21242;-92
2021/01/23 08:02:54;;;;;;;25.73;20.30;;;;;;;1.71;72.89;99783.23;1593711;88;21366;-90
2021/01/23 08:05:48;;;;;;;26.93;19.90;;;;;;;1.97;72.06;99778.13;1604868;86;21238;-91
2021/01/23 08:16:21;;;;;;;30.60;22.43;;;;;;;1.42;71.52;99683.55;1576851;89;21294;-93
2021/01/23 08:19:17;;;;;;;26.27;20.77;;;;;;;2.18;70.96;99788.38;1841502;77;22951;-90
2021/01/23 08:22:09;;;;;;;30.10;21.50;;;;;;;2.17;70.95;99797.27;1794318;78;21252;-91
2021/01/23 08:24:41;;;;;;;28.60;21.63;;;;;;;2.11;71.18;99805.25;1783554;78;21163;-89
2021/01/23 08:27:29;;;;;;;31.30;22.10;;;;;;;2.09;71.29;99800.63;1798674;78;21183;-94
2021/01/23 08:30:22;;;;;;;34.73;21.40;;;;;;;2.10;71.19;99797.50;1763685;78;21188;-94
2021/01/23 08:33:31;;;;;;;29.63;22.60;;;;;;;1.99;71.01;99755.15;1783781;78;21159;-92
2021/01/23 08:36:17;;;;;;;30.63;23.33;;;;;;;2.27;70.79;99797.20;1727429;79;21160;-91
2021/01/23 08:38:55;;;;;;;32.40;23.63;;;;;;;2.25;70.60;99795.20;1730123;81;21302;-90
2021/01/23 08:41:35;;;;;;;33.03;21.53;;;;;;;2.17;70.56;99793.31;1723135;81;21607;-90
2021/01/23 08:44:16;;;;;;;26.97;23.00;;;;;;;2.06;71.14;99798.78;1708992;80;21191;-90
2021/01/23 08:47:08;;;;;;;27.63;21.67;;;;;;;2.13;71.04;99796.73;1749959;80;21196;-90
2021/01/23 08:50:09;;;;;;;28.07;21.70;;;;;;;2.17;71.15;99790.69;1821995;77;22880;-89
2021/01/23 08:53:18;;;;;;;29.67;21.90;;;;;;;2.11;71.42;99796.05;1787653;78;21121;-88
2021/01/23 08:55:50;;;;;;;30.63;22.60;;;;;;;2.11;71.33;99794.73;1799565;78;21222;-88
2021/01/23 08:58:24;;;;;;;29.07;21.70;;;;;;;2.14;71.17;99793.60;1747681;81;21132;-89
2021/01/23 09:00:58;;;;;;;28.80;22.67;;;;;;;2.22;71.03;99786.29;1747856;78;21046;-90
2021/01/23 09:03:34;;;;;;;34.83;26.47;;;;;;;2.17;71.18;99788.52;1707820;82;21229;-89
2021/01/23 09:06:15;;;;;;;32.77;22.67;;;;;;;2.06;71.39;99794.34;1741586;81;21145;-91
2021/01/23 09:09:11;;;;;;;28.87;21.33;;;;;;;1.97;71.77;99789.95;1715729;81;21367;-89
2021/01/23 09:11:43;;;;;;;33.23;24.23;;;;;;;2.12;71.66;99784.54;1719125;81;21072;-91
2021/01/23 09:14:23;;;;;;;25.93;21.43;;;;;;;2.20;71.30;99787.75;1737612;81;21183;-90
2021/01/23 09:17:10;;;;;;;27.97;22.40;;;;;;;2.22;71.42;99788.42;1702618;83;21284;-90
2021/01/23 09:19:49;;;;;;;33.20;26.43;;;;;;;2.25;71.15;99785.51;1694680;84;21154;-91
2021/01/23 09:22:17;;;;;;;32.00;22.93;;;;;;;2.14;71.13;99783.91;1696924;81;21216;-89
2021/01/23 09:24:51;;;;;;;27.67;22.80;;;;;;;2.20;71.17;99784.30;1712192;81;21197;-90
2021/01/23 09:27:20;;;;;;;32.13;23.80;;;;;;;2.30;70.83;99780.64;1724846;81;21292;-89
2021/01/23 09:29:50;;;;;;;34.67;26.37;;;;;;;2.27;70.95;99781.42;1749075;81;21606;-90
2021/01/23 09:32:29;;;;;;;27.23;23.33;;;;;;;2.23;71.27;99777.44;1710297;82;21278;-90
2021/01/23 09:35:02;;;;;;;31.87;23.60;;;;;;;2.12;71.64;99767.45;1696401;82;21241;-92
2021/01/23 09:37:41;;;;;;;29.03;24.20;;;;;;;2.25;71.73;99774.98;1681072;82;21322;-90
2021/01/23 09:40:11;;;;;;;30.73;24.93;;;;;;;2.45;71.03;99770.44;1689521;84;21184;-90
2021/01/23 09:42:38;;;;;;;32.47;24.50;;;;;;;2.47;70.82;99765.84;1696328;84;21224;-92
2021/01/23 09:45:08;;;;;;;37.40;26.63;;;;;;;2.45;70.96;99769.12;1717743;81;21128;-90
2021/01/23 09:47:36;;;;;;;35.73;29.07;;;;;;;2.45;71.07;99769.12;1703518;82;21167;-90
2021/01/23 09:50:12;;;;;;;33.33;25.67;;;;;;;2.48;71.09;99764.86;1710329;84;21199;-93
2021/01/23 09:52:53;;;;;;;33.73;26.40;;;;;;;2.56;71.14;99759.34;1709449;84;21154;-89
2021/01/23 09:55:22;;;;;;;37.87;28.10;;;;;;;2.75;70.63;99757.87;1687278;82;21322;-91
2021/01/23 09:58:03;;;;;;;32.43;25.90;;;;;;;2.86;69.62;99752.84;1693972;84;21183;-89
2021/01/23 10:00:31;;;;;;;38.27;28.80;;;;;;;2.83;70.05;99750.04;1679842;82;21122;-91
2021/01/23 10:03:01;;;;;;;39.27;29.63;;;;;;;2.82;70.05;99749.69;1721014;82;21303;-90
2021/01/23 10:06:06;;;;;;;35.40;24.70;;;;;;;2.73;70.03;99759.34;1616349;87;21214;-91
2021/01/23 10:08:41;;;;;;;35.50;27.00;;;;;;;2.65;70.40;99763.20;1712058;84;21136;-92
2021/01/23 10:11:44;;;;;;;34.30;24.30;;;;;;;2.79;70.21;99767.58;1702653;82;21235;-90
2021/01/23 10:14:21;;;;;;;32.43;24.47;;;;;;;2.81;69.95;99787.53;1707708;81;21259;-90
2021/01/23 10:16:56;;;;;;;34.53;26.23;;;;;;;2.71;70.27;99776.23;1687504;84;21408;-91
2021/01/23 10:19:56;;;;;;;43.05;32.60;;;;;;;2.70;70.72;99783.81;1692113;82;21180;-91
2021/01/23 10:22:47;;;;;;;38.20;29.80;;;;;;;2.65;70.54;99783.44;1702750;82;21099;-92
2021/01/23 10:26:09;;;;;;;42.37;30.83;;;;;;;2.75;70.37;99784.20;1695081;84;21236;-90
2021/01/23 10:29:03;;;;;;;40.17;30.63;;;;;;;2.78;70.34;99778.61;1699621;84;21295;-93
2021/01/23 10:32:07;;;;;;;42.35;30.77;;;;;;;2.81;70.44;99774.87;1697220;81;21931;31
2021/01/23 10:35:23;;;;;;;35.23;26.60;;;;;;;2.83;70.35;99760.56;1602877;89;21104;-91
2021/01/23 10:38:36;;;;;;;36.63;28.63;;;;;;;2.83;70.34;99756.62;1591688;85;21902;-90
2021/01/23 10:41:42;;;;;;;36.75;27.73;;;;;;;3.05;70.12;99770.26;1560504;89;21240;-92
2021/01/23 10:44:14;;;;;;;32.57;23.83;;;;;;;3.21;69.75;99764.30;1553600;91;21515;-90
2021/01/23 10:46:56;;;;;;;33.47;24.40;;;;;;;3.22;69.41;99764.61;1614130;87;21216;-89
2021/01/23 10:49:26;;;;;;;36.07;25.83;;;;;;;3.15;69.24;99765.73;1629500;87;21260;-92
2021/01/23 10:52:07;;;;;;;35.80;27.23;;;;;;;3.10;69.47;99766.19;1598483;88;21175;-93
2021/01/23 10:54:39;;;;;;;34.50;23.67;;;;;;;3.06;69.49;99760.08;1589956;89;22297;-92
2021/01/23 11:01:06;;;;;;;39.40;28.20;;;;;;;3.24;69.35;99749.48;1623330;86;21204;-91
2021/01/23 11:04:28;;;;;;;37.33;29.40;;;;;;;3.23;69.55;99742.58;1591209;85;21173;-91
2021/01/23 11:07:59;;;;;;;40.50;29.00;;;;;;;3.27;69.59;99737.33;1570112;90;21261;-91
2021/01/23 11:10:59;;;;;;;42.30;29.57;;;;;;;3.18;69.48;99735.13;1605959;87;21212;-91
2021/01/23 11:13:33;;;;;;;41.83;31.83;;;;;;;3.21;69.32;99725.61;1615160;87;21329;-90
2021/01/23 11:16:41;;;;;;;43.07;32.90;;;;;;;3.15;69.42;99711.75;1624904;85;21360;-94
2021/01/23 11:26:32;;;;;;;45.60;32.43;;;;;;;3.07;70.20;99719.58;1597540;87;21313;-94
2021/01/23 11:29:22;;;;;;;46.60;35.07;;;;;;;3.14;69.99;99709.27;1547179;90;21215;-90
2021/01/23 11:32:13;;;;;;;44.90;33.73;;;;;;;3.04;70.41;99706.25;1604348;85;21322;-94
2021/01/23 11:34:55;;;;;;;44.97;31.63;;;;;;;3.02;70.54;99710.03;1617828;85;21221;-91
2021/01/23 11:40:24;;;;;;;38.33;29.00;;;;;;;3.19;70.46;99716.22;1822673;76;23057;-91
2021/01/23 11:43:50;;;;;;;37.27;27.40;;;;;;;3.20;70.30;99713.44;1747013;78;21554;-91
2021/01/23 11:46:34;;;;;;;42.88;32.65;;;;;;;3.18;70.43;99719.32;1711733;81;21115;-90
2021/01/23 11:49:22;;;;;;;44.98;32.90;;;;;;;3.21;70.34;99727.42;1673379;83;21195;-90
2021/01/23 11:52:36;;;;;;;43.43;30.33;;;;;;;3.25;70.47;99716.91;1639205;84;21319;-93
2021/01/23 11:55:31;;;;;;;41.30;30.53;;;;;;;3.35;70.16;99714.97;1618172;86;21249;-93
2021/01/23 11:58:48;;;;;;;40.07;29.70;;;;;;;3.47;69.63;99723.45;1653342;84;21212;-91
2021/01/23 12:02:32;;;;;;;41.20;30.93;;;;;;;3.52;69.93;99718.52;1828856;76;24796;-90
2021/01/23 12:05:53;;;;;;;49.83;34.67;;;;;;;3.43;69.93;99730.02;1697150;81;22357;-91
2021/01/23 12:08:35;;;;;;;36.43;27.03;;;;;;;3.37;70.23;99724.04;1706941;80;21935;-94
2021/01/23 12:11:28;;;;;;;46.53;33.73;;;;;;;3.34;70.31;99719.11;1723417;80;21139;-91
2021/01/23 12:14:28;;;;;;;46.77;33.00;;;;;;;3.44;70.18;99711.89;1703938;82;21128;-93
2021/01/23 12:18:02;;;;;;;44.03;29.53;;;;;;;3.45;70.07;99717.02;1731854;81;21194;-93
2021/01/23 12:21:17;;;;;;;38.40;29.00;;;;;;;3.38;70.19;99704.63;1708581;81;21104;-93
2021/01/23 12:24:16;;;;;;;44.40;30.07;;;;;;;3.28;70.33;99712.16;1709270;79;21089;-91
2021/01/23 12:50:08;;;;;;;48.40;30.97;;;;;;;2.20;74.21;99743.54;1734831;80;23664;-93
2021/01/23 13:03:55;;;;;;;52.03;36.27;;;;;;;2.04;75.40;99754.23;1790574;78;22603;-91
2021/01/23 13:07:10;;;;;;;54.50;36.73;;;;;;;1.95;75.75;99765.63;1841445;75;22950;-89
2021/01/23 13:10:48;;;;;;;56.60;39.50;;;;;;;1.96;75.54;99776.48;1769067;78;21171;-88
2021/01/23 13:17:00;;;;;;;52.40;37.30;;;;;;;1.83;76.32;99765.46;1763514;77;21171;-91
2021/01/23 13:20:24;;;;;;;42.13;29.50;;;;;;;1.72;76.72;99767.32;1743951;81;21117;-91
2021/01/23 13:26:28;;;;;;;40.57;27.60;;;;;;;1.46;77.53;99752.70;1777615;80;21270;-90
2021/01/23 13:29:07;;;;;;;38.10;24.82;;;;;;;1.30;78.00;99762.97;1766226;79;21139;-92
2021/01/23 13:35:01;;;;;;;34.30;22.90;;;;;;;1.26;78.55;99755.89;1628339;83;21684;31
2021/01/23 13:37:39;;;;;;;36.30;25.00;;;;;;;1.10;79.18;99762.20;1676849;83;21167;-91
2021/01/23 13:40:19;;;;;;;36.77;25.10;;;;;;;1.08;79.31;99769.40;1657856;81;21262;-89
2021/01/23 13:42:53;;;;;;;36.93;25.70;;;;;;;1.09;79.61;99773.66;1634700;85;21206;-92